Haines, AK

10:52 AM AKDT on April 28, 2015 (GMT -0800)
Pyramid Island View | | Change Station
CLOSE
Current Station
Personal Weather Station
Location: Haines, AK
Elevation: 72 ft
Nearby Weather Stations

Elev 72 ft 59.20 °N, 135.44 °W | Updated 57 seconds ago

Light Rain
Light Rain
39.0 °F
Feels Like 39 °F
N
0.9
Wind Variable Wind from North
Gusts 0.9 mph

Today
High -- | Low -- °F
--% Chance of Precip.
Yesterday
High -- | Low -- °F
Precip. -- in
5:11 AM 8:48 PM
Waxing Gibbous, 75% visible
Pressure 29.24 in
Visibility 10.0 miles
Clouds Mostly Cloudy 800 ft
Mostly Cloudy 3500 ft
Overcast 5000 ft
Windchill 39 °F
Dew Point 38 °F
Humidity 98%
Rainfall 0.04 in
Snow Depth Not available.
UV 1 out of 12
Pollen Not available.
Air Quality Not available.
Flu Activity Sporadic
SPECI PAHN 281827Z AUTO 29013KT 10SM -RA BKN008 BKN035 OVC050 03/02 A2924 RMK AO2 RAB13 P0000 T00330022 TSNO

More Conditions Fewer Conditions

Pressure 29.24 in
Visibility 10.0 miles
Clouds Mostly Cloudy 800 ft
Mostly Cloudy 3500 ft
Overcast 5000 ft
Windchill 39 °F
Dew Point 38 °F
Humidity 98%
Rainfall 0.04 in
Snow Depth Not available.
UV 1 out of 12
Pollen Not available.
Air Quality Not available.
Flu Activity Sporadic
SPECI PAHN 281827Z AUTO 29013KT 10SM -RA BKN008 BKN035 OVC050 03/02 A2924 RMK AO2 RAB13 P0000 T00330022 TSNO

More Conditions Fewer Conditions

10-Day Weather Forecast

Almanac

Astronomy

Apr. 28, 2015 Rise Set
Actual Time
Civil Twilight
Nautical Twilight
Astronomical Twilight
Moon
Length of Visible Light
Length of Day
Tomorrow will be .
, % of the Moon is Illuminated

Today's Extremes

State Highs State Lows

Community

WunderPhotos

Upload Photos

1,817,725 photos uploaded!

WunderBlogs® & News

Nearby

Air Quality

  Air Quality AQ Index Pollutant
Not available.

Snow Depth

Station Depth Elevation

Earthquake Activity

City Distance Mag. Time & Date
Minimum magnitude displayed is 2.5.

Coastal Water Temperatures

Place Temperature

Stations

Nearby Weather Stations

Station Location Temp. Windchill Dew Point Humidity Wind Precip. Elev Updated Type